Time;durP1;ratioP1;P1;durP2;ratioP2;P2;SDS_P1;SDS_P2;PMS_P1;PMS_P2;Temp;Humidity;BMP_temperature;BMP_pressure;BME280_temperature;BME280_humidity;BME280_pressure;Samples;Min_cycle;Max_cycle;Signal;HPM_P1;HPM_P2
2023/09/27 00:00:17;;;;;;;4.95;3.15;;;;;;;14.88;100.00;101751.16;6229447;28;20061;-71
2023/09/27 00:03:19;;;;;;;3.53;2.75;;;;;;;14.87;100.00;101749.47;6229300;28;20050;-71
2023/09/27 00:06:21;;;;;;;5.18;3.22;;;;;;;14.88;100.00;101750.31;6229334;28;20045;-71
2023/09/27 00:09:22;;;;;;;5.97;3.63;;;;;;;14.84;100.00;101764.66;6228899;28;20060;-71
2023/09/27 00:12:25;;;;;;;4.03;2.80;;;;;;;14.81;100.00;101756.91;6229063;28;20354;-71
2023/09/27 00:15:26;;;;;;;8.82;3.33;;;;;;;14.78;100.00;101744.69;6229064;28;20057;-71
2023/09/27 00:18:28;;;;;;;4.28;3.05;;;;;;;14.74;100.00;101734.34;6228666;28;20332;-71
2023/09/27 00:21:29;;;;;;;7.07;3.53;;;;;;;14.68;100.00;101720.53;6227947;28;20060;-70
2023/09/27 00:24:30;;;;;;;5.20;3.35;;;;;;;14.62;100.00;101725.28;6228695;28;20042;-71
2023/09/27 00:27:34;;;;;;;5.00;2.80;;;;;;;14.59;100.00;101723.69;6228806;28;20064;-71
2023/09/27 00:30:36;;;;;;;7.45;3.25;;;;;;;14.57;100.00;101728.19;6228356;28;20050;-70
2023/09/27 00:33:37;;;;;;;4.60;2.95;;;;;;;14.52;100.00;101721.44;6222843;28;20046;-71
2023/09/27 00:36:38;;;;;;;5.65;3.22;;;;;;;14.43;100.00;101728.03;6220033;28;20037;-71
2023/09/27 00:39:40;;;;;;;5.38;3.17;;;;;;;14.41;100.00;101738.72;6219867;28;20466;-71
2023/09/27 00:42:42;;;;;;;6.22;3.22;;;;;;;14.37;100.00;101739.81;6220673;28;20345;-71
2023/09/27 00:45:44;;;;;;;3.90;2.60;;;;;;;14.35;100.00;101731.13;6228437;28;20048;-71
2023/09/27 00:48:45;;;;;;;6.28;3.25;;;;;;;14.32;100.00;101720.69;6213525;28;20331;-71
2023/09/27 00:51:48;;;;;;;4.40;2.72;;;;;;;14.29;100.00;101717.34;6228354;28;20065;-71
2023/09/27 00:54:50;;;;;;;6.57;3.17;;;;;;;14.23;100.00;101709.75;6228196;28;20046;-71
2023/09/27 00:57:54;;;;;;;4.00;3.15;;;;;;;14.18;100.00;101710.84;6227938;28;20053;-71
2023/09/27 01:00:55;;;;;;;4.25;3.17;;;;;;;14.17;100.00;101708.28;6227875;28;20053;-71
2023/09/27 01:03:58;;;;;;;4.82;2.78;;;;;;;14.14;100.00;101716.38;6227923;28;20050;-71
2023/09/27 01:07:00;;;;;;;7.18;3.50;;;;;;;14.11;100.00;101716.53;6227630;28;20050;-71
2023/09/27 01:10:02;;;;;;;4.30;3.05;;;;;;;14.07;100.00;101721.13;6227436;28;20050;-71
2023/09/27 01:13:05;;;;;;;5.85;3.30;;;;;;;14.05;100.00;101725.66;6227865;28;20083;-71
2023/09/27 01:16:07;;;;;;;5.60;3.38;;;;;;;14.03;100.00;101729.28;6227594;28;20046;-70
2023/09/27 01:19:08;;;;;;;4.40;2.88;;;;;;;14.00;100.00;101732.97;6227301;28;20057;-71
2023/09/27 01:22:10;;;;;;;4.97;3.50;;;;;;;14.03;100.00;101726.66;6227442;28;20053;-71
2023/09/27 01:25:18;;;;;;;5.70;3.20;;;;;;;14.04;100.00;101723.09;6227231;28;20346;-71
2023/09/27 01:28:21;;;;;;;6.07;3.47;;;;;;;14.02;100.00;101723.16;6227319;28;20050;-71
2023/09/27 01:31:22;;;;;;;4.72;2.70;;;;;;;14.02;100.00;101727.59;6227269;28;20472;-69
2023/09/27 01:34:23;;;;;;;5.63;2.70;;;;;;;13.99;100.00;101728.63;6227488;28;20064;-71
2023/09/27 01:37:25;;;;;;;7.55;3.38;;;;;;;13.98;100.00;101723.41;6227270;28;20054;-71
2023/09/27 01:40:30;;;;;;;6.25;2.90;;;;;;;13.95;100.00;101729.72;6226862;28;20050;-71
2023/09/27 01:43:31;;;;;;;4.13;2.80;;;;;;;13.91;100.00;101728.16;6226972;28;20082;-71
2023/09/27 01:46:33;;;;;;;2.78;2.08;;;;;;;13.87;100.00;101738.03;6226765;28;20442;-71
2023/09/27 01:49:34;;;;;;;4.40;3.03;;;;;;;13.83;100.00;101733.81;6226659;28;20128;-71
2023/09/27 01:52:36;;;;;;;4.40;2.90;;;;;;;13.81;100.00;101725.13;6226980;28;20056;-71
2023/09/27 01:55:38;;;;;;;5.57;2.95;;;;;;;13.80;100.00;101730.47;6226747;28;20086;-71
2023/09/27 01:58:40;;;;;;;4.82;3.03;;;;;;;13.77;100.00;101725.38;6226845;28;20056;-70
2023/09/27 02:01:41;;;;;;;6.35;3.30;;;;;;;13.71;100.00;101732.66;6226407;28;20328;-71
2023/09/27 02:04:42;;;;;;;6.68;3.08;;;;;;;13.66;100.00;101726.75;6226729;28;20080;-71
2023/09/27 02:07:44;;;;;;;5.97;3.30;;;;;;;13.66;100.00;101736.47;6226494;28;20054;-71
2023/09/27 02:10:50;;;;;;;4.38;3.00;;;;;;;13.64;100.00;101733.91;6226215;28;20096;-71
2023/09/27 02:13:52;;;;;;;5.05;3.13;;;;;;;13.64;100.00;101727.78;6226645;28;20050;-71
2023/09/27 02:16:53;;;;;;;6.90;3.10;;;;;;;13.64;100.00;101743.63;6226207;28;20057;-71
2023/09/27 02:19:54;;;;;;;5.35;3.17;;;;;;;13.62;100.00;101745.47;6226152;28;20056;-70
2023/09/27 02:22:56;;;;;;;5.57;3.58;;;;;;;13.58;100.00;101742.16;6226182;28;20391;-71
2023/09/27 02:25:59;;;;;;;4.80;3.30;;;;;;;13.58;100.00;101738.63;6226253;28;20057;-71
2023/09/27 02:29:00;;;;;;;6.18;3.08;;;;;;;13.55;100.00;101744.09;6225880;28;20054;-71
2023/09/27 02:32:02;;;;;;;7.50;2.80;;;;;;;13.49;100.00;101750.53;6226255;28;20046;-71
2023/09/27 02:35:04;;;;;;;5.20;3.30;;;;;;;13.45;100.00;101752.47;6214409;28;20042;-71
2023/09/27 02:38:06;;;;;;;4.80;2.90;;;;;;;13.43;100.00;101756.94;6214158;28;20101;-71
2023/09/27 02:41:09;;;;;;;4.32;2.78;;;;;;;13.43;100.00;101758.72;6221526;28;20134;-70
2023/09/27 02:44:11;;;;;;;4.72;3.20;;;;;;;13.40;100.00;101756.28;6229450;28;20049;-71
2023/09/27 02:47:13;;;;;;;5.85;3.25;;;;;;;13.39;100.00;101765.94;6223620;28;20049;-69
2023/09/27 02:50:14;;;;;;;4.55;3.15;;;;;;;13.40;100.00;101764.19;6234035;28;20442;-69
2023/09/27 02:53:16;;;;;;;4.30;3.00;;;;;;;13.38;100.00;101763.38;6233997;28;20053;-71
2023/09/27 02:56:18;;;;;;;5.38;3.05;;;;;;;13.33;100.00;101770.69;6233850;28;20346;-71
2023/09/27 02:59:20;;;;;;;4.68;2.88;;;;;;;13.33;100.00;101773.31;6233679;28;20057;-71
2023/09/27 03:02:23;;;;;;;4.95;3.10;;;;;;;13.30;100.00;101776.09;6233848;28;20054;-71
2023/09/27 03:05:24;;;;;;;4.72;3.40;;;;;;;13.28;100.00;101768.25;6234105;28;20052;-71
2023/09/27 03:08:26;;;;;;;4.72;3.05;;;;;;;13.27;100.00;101766.56;6233547;28;20426;-70
2023/09/27 03:11:29;;;;;;;3.97;2.70;;;;;;;13.26;100.00;101772.75;6233732;28;20140;-71
2023/09/27 03:14:30;;;;;;;6.93;3.20;;;;;;;13.23;100.00;101769.41;6233788;28;20084;-71
2023/09/27 03:17:32;;;;;;;5.55;3.08;;;;;;;13.20;100.00;101763.31;6233710;28;20045;-71
2023/09/27 03:20:33;;;;;;;8.38;3.83;;;;;;;13.16;100.00;101759.09;6233362;28;20046;-71
2023/09/27 03:23:35;;;;;;;5.38;3.15;;;;;;;13.15;100.00;101740.72;6233701;28;20049;-71
2023/09/27 03:26:37;;;;;;;4.57;3.05;;;;;;;13.13;100.00;101747.88;6233699;28;20057;-71
2023/09/27 03:29:39;;;;;;;5.45;3.00;;;;;;;13.09;100.00;101748.94;6233264;28;20439;-71
2023/09/27 03:32:41;;;;;;;4.50;2.97;;;;;;;13.08;100.00;101756.00;6233579;28;20091;-71
2023/09/27 03:35:42;;;;;;;4.72;3.17;;;;;;;13.06;100.00;101762.28;6233663;28;20465;-71
2023/09/27 03:38:43;;;;;;;5.22;3.40;;;;;;;13.06;100.00;101757.00;6233259;28;20059;-71
2023/09/27 03:41:46;;;;;;;7.38;3.53;;;;;;;13.02;100.00;101751.00;6233205;28;20049;-71
2023/09/27 03:44:48;;;;;;;6.25;3.33;;;;;;;13.02;100.00;101760.69;6233505;28;20046;-71
2023/09/27 03:47:50;;;;;;;5.35;2.97;;;;;;;12.97;100.00;101754.78;6233122;28;20045;-71
2023/09/27 03:50:51;;;;;;;5.40;3.20;;;;;;;12.94;100.00;101754.03;6233491;28;20050;-71
2023/09/27 03:53:53;;;;;;;3.95;3.03;;;;;;;12.89;100.00;101765.69;6233219;28;20050;-71
2023/09/27 03:56:55;;;;;;;5.43;3.28;;;;;;;12.86;100.00;101761.44;6228964;28;20042;-70
2023/09/27 03:59:57;;;;;;;3.30;2.45;;;;;;;12.87;100.00;101767.56;6229167;28;20054;-71
2023/09/27 04:02:59;;;;;;;4.80;3.05;;;;;;;12.82;100.00;101773.03;6229457;28;20050;-70
2023/09/27 04:06:00;;;;;;;5.00;2.90;;;;;;;12.81;100.00;101771.34;6228978;28;20049;-70
2023/09/27 04:09:02;;;;;;;4.75;3.00;;;;;;;12.77;100.00;101775.03;6228622;28;20046;-71
2023/09/27 04:12:05;;;;;;;5.20;3.25;;;;;;;12.74;100.00;101775.19;6208752;28;20117;-70
2023/09/27 04:15:08;;;;;;;4.97;3.08;;;;;;;12.68;100.00;101780.75;6218404;28;20346;-71
2023/09/27 04:18:10;;;;;;;6.00;3.60;;;;;;;12.65;100.00;101770.31;6216281;28;20442;-70
2023/09/27 04:21:12;;;;;;;8.27;3.30;;;;;;;12.61;100.00;101779.28;6228511;28;20053;-70
2023/09/27 04:24:13;;;;;;;5.18;3.35;;;;;;;12.62;100.00;101788.91;6226251;28;20450;-70
2023/09/27 04:27:16;;;;;;;6.47;3.60;;;;;;;12.64;100.00;101792.34;6220306;28;20377;-71
2023/09/27 04:30:19;;;;;;;8.18;3.30;;;;;;;12.63;100.00;101796.78;6228498;28;20057;-71
2023/09/27 04:33:21;;;;;;;5.90;3.38;;;;;;;12.61;100.00;101780.16;6228398;28;20050;-71
2023/09/27 04:36:22;;;;;;;5.25;3.40;;;;;;;12.56;100.00;101778.66;6217385;28;20045;-70
2023/09/27 04:39:27;;;;;;;5.97;3.80;;;;;;;12.54;100.00;101773.47;6219950;28;20050;-72
2023/09/27 04:42:29;;;;;;;5.47;3.53;;;;;;;12.58;100.00;101776.78;6216324;28;20442;-72
2023/09/27 04:45:31;;;;;;;5.95;3.78;;;;;;;12.54;100.00;101778.72;6228381;28;20054;-72
2023/09/27 04:48:32;;;;;;;5.15;3.53;;;;;;;12.48;100.00;101778.13;6220310;28;20050;-72
2023/09/27 04:51:34;;;;;;;3.88;3.20;;;;;;;12.43;100.00;101789.72;6219901;28;20099;-73
2023/09/27 04:54:36;;;;;;;4.80;3.65;;;;;;;12.41;100.00;101796.88;6227856;28;20061;-72
2023/09/27 04:57:38;;;;;;;4.57;3.05;;;;;;;12.46;100.00;101801.09;6228083;28;20049;-72
2023/09/27 05:00:40;;;;;;;5.35;3.47;;;;;;;12.44;100.00;101796.75;6227707;28;20058;-72
2023/09/27 05:03:41;;;;;;;5.05;3.60;;;;;;;12.42;100.00;101808.25;6228027;28;20057;-72
2023/09/27 05:06:43;;;;;;;4.75;2.95;;;;;;;12.42;100.00;101806.47;6217352;28;20054;-72
2023/09/27 05:09:45;;;;;;;5.72;3.33;;;;;;;12.42;100.00;101803.84;6203218;28;20465;-72
2023/09/27 05:12:47;;;;;;;4.72;3.00;;;;;;;12.39;100.00;101803.97;6203279;28;20054;-72
2023/09/27 05:15:49;;;;;;;9.07;3.63;;;;;;;12.38;100.00;101811.97;6203244;28;20093;-72
2023/09/27 05:18:50;;;;;;;4.93;3.65;;;;;;;12.37;100.00;101819.00;6202950;28;20090;-72
2023/09/27 05:21:52;;;;;;;8.27;4.05;;;;;;;12.36;100.00;101812.03;6202928;28;20054;-72
2023/09/27 05:24:53;;;;;;;6.38;3.47;;;;;;;12.40;100.00;101802.22;6203089;28;20050;-72
2023/09/27 05:27:57;;;;;;;8.57;3.42;;;;;;;12.41;100.00;101798.66;6202729;28;20061;-72
2023/09/27 05:30:58;;;;;;;7.30;3.58;;;;;;;12.42;100.00;101795.09;6202665;28;20438;-72
2023/09/27 05:33:59;;;;;;;8.32;4.10;;;;;;;12.42;100.00;101795.94;6199896;28;20379;-72
2023/09/27 05:37:01;;;;;;;10.48;3.97;;;;;;;12.41;100.00;101793.38;6191560;28;20439;-71
2023/09/27 05:40:04;;;;;;;10.38;4.35;;;;;;;12.41;100.00;101785.47;6202332;28;20136;-72
2023/09/27 05:43:07;;;;;;;5.28;3.63;;;;;;;12.41;100.00;101790.75;6202599;28;20481;-72
2023/09/27 05:46:08;;;;;;;5.50;3.55;;;;;;;12.37;100.00;101789.16;6205615;28;20045;-71
2023/09/27 05:49:10;;;;;;;6.95;4.10;;;;;;;12.39;100.00;101795.22;6208319;28;20050;-70
2023/09/27 05:52:13;;;;;;;4.90;3.63;;;;;;;12.42;100.00;101781.91;6203560;28;20475;-71
2023/09/27 05:55:15;;;;;;;6.22;3.70;;;;;;;12.46;100.00;101783.47;6188872;28;20072;-71
2023/09/27 05:58:18;;;;;;;9.98;4.30;;;;;;;12.46;100.00;101780.00;6209612;28;20046;-71
2023/09/27 06:01:20;;;;;;;10.65;4.60;;;;;;;12.45;100.00;101781.78;6202000;28;20060;-71
2023/09/27 06:04:21;;;;;;;6.93;4.00;;;;;;;12.49;100.00;101782.47;6202264;28;20050;-72
2023/09/27 06:07:23;;;;;;;11.85;4.00;;;;;;;12.52;100.00;101777.94;6201995;28;20046;-72
2023/09/27 06:10:24;;;;;;;5.97;3.53;;;;;;;12.57;100.00;101780.34;6201777;28;20447;-72
2023/09/27 06:13:28;;;;;;;7.20;3.95;;;;;;;12.61;100.00;101776.66;6202035;28;20080;-71
2023/09/27 06:16:29;;;;;;;5.43;3.55;;;;;;;12.66;100.00;101775.50;6201938;28;20455;-71
2023/09/27 06:19:31;;;;;;;7.25;4.40;;;;;;;12.72;100.00;101784.06;6200963;28;20069;-71
2023/09/27 06:22:34;;;;;;;11.35;4.45;;;;;;;12.75;100.00;101792.72;6202145;28;20046;-71
2023/09/27 06:25:36;;;;;;;7.03;3.58;;;;;;;12.83;100.00;101793.22;6201908;28;20054;-71
2023/09/27 06:28:38;;;;;;;6.78;3.92;;;;;;;12.91;100.00;101788.44;6190504;28;20423;-69
2023/09/27 06:31:40;;;;;;;9.13;4.25;;;;;;;13.03;100.00;101783.50;6182458;28;20061;-70
2023/09/27 06:34:43;;;;;;;5.05;3.33;;;;;;;13.10;100.00;101788.44;6186802;28;20053;-70
2023/09/27 06:37:48;;;;;;;5.53;3.63;;;;;;;13.16;100.00;101795.19;6204297;28;20050;-70
2023/09/27 06:40:50;;;;;;;5.47;3.95;;;;;;;13.21;100.00;101801.97;6210112;28;20064;-70
2023/09/27 06:43:54;;;;;;;7.22;4.50;;;;;;;13.27;100.00;101800.88;6226110;28;20053;-70
2023/09/27 06:46:56;;;;;;;5.85;3.97;;;;;;;13.35;100.00;101801.38;6223781;28;20133;-70
2023/09/27 06:49:57;;;;;;;4.85;3.28;;;;;;;13.41;100.00;101806.34;6201551;28;20058;-70
2023/09/27 06:52:59;;;;;;;6.90;4.10;;;;;;;13.50;100.00;101801.56;6209575;28;20056;-70
2023/09/27 06:56:02;;;;;;;7.10;4.03;;;;;;;13.59;100.00;101793.19;6204609;28;20351;-70
2023/09/27 06:59:07;;;;;;;6.03;3.60;;;;;;;13.73;100.00;101797.78;6216521;28;20050;-70
2023/09/27 07:02:09;;;;;;;5.22;3.33;;;;;;;13.80;100.00;101793.88;6212089;28;20046;-70
2023/09/27 07:05:11;;;;;;;7.22;3.90;;;;;;;13.88;100.00;101799.66;6218801;28;20184;-70
2023/09/27 07:08:13;;;;;;;6.05;3.45;;;;;;;13.97;100.00;101804.47;6217021;28;20323;-71
2023/09/27 07:11:14;;;;;;;6.03;3.58;;;;;;;14.09;100.00;101809.16;6192470;28;20458;-72
2023/09/27 07:14:19;;;;;;;5.32;3.35;;;;;;;14.18;100.00;101813.97;6199765;28;20053;-71
2023/09/27 07:17:21;;;;;;;5.25;3.40;;;;;;;14.29;100.00;101807.25;6207721;28;20061;-72
2023/09/27 07:20:27;;;;;;;5.20;3.33;;;;;;;14.35;100.00;101810.44;6211496;28;20328;-71
2023/09/27 07:23:29;;;;;;;6.78;3.92;;;;;;;14.43;100.00;101825.91;6209278;28;20082;-72
2023/09/27 07:26:31;;;;;;;7.35;4.32;;;;;;;14.61;100.00;101843.47;6217810;28;20043;-73
2023/09/27 07:29:34;;;;;;;5.65;3.75;;;;;;;14.69;100.00;101851.03;6201523;28;20058;-73
2023/09/27 07:32:37;;;;;;;9.05;3.97;;;;;;;14.75;100.00;101855.13;6205711;28;20454;-72
2023/09/27 07:35:42;;;;;;;7.75;3.95;;;;;;;14.87;100.00;101849.19;6205997;28;20124;-71
2023/09/27 07:38:43;;;;;;;6.28;3.85;;;;;;;14.96;100.00;101854.84;6205334;28;20050;-71
2023/09/27 07:41:45;;;;;;;5.78;4.10;;;;;;;15.02;100.00;101858.94;6211513;28;20343;-72
2023/09/27 07:44:47;;;;;;;5.88;3.70;;;;;;;15.12;100.00;101862.78;6196965;28;20059;-73
2023/09/27 07:47:51;;;;;;;6.10;3.50;;;;;;;15.19;100.00;101866.81;6207503;28;20050;-71
2023/09/27 07:50:54;;;;;;;8.07;4.03;;;;;;;15.23;100.00;101867.53;6213881;28;20066;-73
2023/09/27 07:53:55;;;;;;;7.10;3.75;;;;;;;15.28;100.00;101867.28;6222703;28;20050;-73
2023/09/27 07:56:57;;;;;;;10.60;5.88;;;;;;;15.31;100.00;101870.59;6214527;28;20129;-71
2023/09/27 08:00:00;;;;;;;8.23;3.92;;;;;;;15.35;100.00;101865.97;6220741;28;20176;-73
2023/09/27 08:03:02;;;;;;;5.88;3.55;;;;;;;15.37;100.00;101864.97;6229489;28;20049;-72
2023/09/27 08:06:04;;;;;;;8.35;3.67;;;;;;;15.40;100.00;101869.25;6216836;28;20435;-71
2023/09/27 08:09:06;;;;;;;6.47;4.30;;;;;;;15.41;100.00;101877.09;6215235;28;20176;-72
2023/09/27 08:12:08;;;;;;;5.35;3.47;;;;;;;15.45;100.00;101875.13;6194935;28;20354;-71
2023/09/27 08:15:12;;;;;;;6.22;4.13;;;;;;;15.47;100.00;101878.53;6202025;28;20069;-72
2023/09/27 08:18:14;;;;;;;6.20;4.18;;;;;;;15.53;100.00;101874.69;6202693;28;20046;-72
2023/09/27 08:21:15;;;;;;;5.47;3.55;;;;;;;15.58;100.00;101880.59;6203256;28;20054;-71
2023/09/27 08:24:17;;;;;;;5.80;3.67;;;;;;;15.62;100.00;101877.66;6213131;28;20469;-73
2023/09/27 08:27:18;;;;;;;5.32;3.55;;;;;;;15.70;100.00;101885.22;6217431;28;20520;-72
2023/09/27 08:30:21;;;;;;;4.60;3.40;;;;;;;15.73;100.00;101877.13;6214993;28;20050;-71
2023/09/27 08:33:23;;;;;;;7.15;4.72;;;;;;;15.82;100.00;101867.78;6215431;28;20053;-71
2023/09/27 08:36:24;;;;;;;5.93;3.60;;;;;;;15.89;100.00;101861.19;6220333;28;20465;-72
2023/09/27 08:39:27;;;;;;;4.65;3.20;;;;;;;15.96;100.00;101855.44;6213878;28;20046;-72
2023/09/27 08:42:29;;;;;;;5.13;3.20;;;;;;;16.11;100.00;101855.47;6215703;28;20052;-74
2023/09/27 08:45:37;;;;;;;4.45;2.80;;;;;;;16.16;100.00;101846.31;6208130;28;20133;-72
2023/09/27 08:48:39;;;;;;;4.63;2.83;;;;;;;16.18;100.00;101835.63;6221364;28;20421;-72
2023/09/27 08:51:43;;;;;;;4.57;2.47;;;;;;;16.26;100.00;101837.78;6216577;28;20053;-71
2023/09/27 08:54:44;;;;;;;4.05;2.55;;;;;;;16.33;100.00;101833.84;6217413;28;20050;-71
2023/09/27 08:57:47;;;;;;;4.85;2.75;;;;;;;16.44;100.00;101828.72;6219325;28;20041;-71
2023/09/27 09:00:50;;;;;;;5.22;3.10;;;;;;;16.52;100.00;101817.66;6209416;28;20054;-71
2023/09/27 09:03:53;;;;;;;4.15;2.95;;;;;;;16.68;100.00;101813.97;6212973;28;20358;-71
2023/09/27 09:06:55;;;;;;;3.70;2.53;;;;;;;16.81;100.00;101810.59;6220672;28;20046;-71
2023/09/27 09:09:56;;;;;;;4.45;2.72;;;;;;;16.97;100.00;101816.63;6227542;28;20053;-72
2023/09/27 09:12:59;;;;;;;7.13;2.83;;;;;;;17.15;100.00;101812.81;6227364;28;20366;-70
2023/09/27 09:16:14;;;;;;;3.70;2.33;;;;;;;17.30;100.00;101799.50;6222307;28;20054;-71
2023/09/27 09:19:23;;;;;;;2.58;2.03;;;;;;;17.36;100.00;101799.97;6204740;28;20046;-70
2023/09/27 09:22:24;;;;;;;5.60;3.28;;;;;;;17.50;100.00;101789.28;6203481;28;20088;-71
2023/09/27 09:25:26;;;;;;;5.07;2.63;;;;;;;17.70;100.00;101779.13;6203054;28;20046;-71
2023/09/27 09:28:29;;;;;;;3.63;2.63;;;;;;;17.90;100.00;101770.69;6202744;28;20046;-71
2023/09/27 09:31:33;;;;;;;21.30;9.43;;;;;;;18.08;100.00;101765.94;6202573;28;20407;-71
2023/09/27 09:34:40;;;;;;;6.90;3.30;;;;;;;18.24;100.00;101765.72;6203242;28;20051;-70
2023/09/27 09:37:48;;;;;;;3.08;2.10;;;;;;;18.47;100.00;101775.59;6202621;28;20079;-72
2023/09/27 09:40:54;;;;;;;2.90;2.17;;;;;;;18.61;100.00;101765.78;6197538;28;20149;-71
2023/09/27 09:43:56;;;;;;;4.07;2.75;;;;;;;18.60;100.00;101769.41;6209907;28;20054;-72
2023/09/27 09:47:11;;;;;;;2.42;1.85;;;;;;;18.65;100.00;101773.44;6215566;28;20056;-72
2023/09/27 09:50:16;;;;;;;3.67;2.40;;;;;;;18.64;100.00;101787.72;6201981;28;20529;-73
2023/09/27 09:53:20;;;;;;;2.78;2.17;;;;;;;18.63;100.00;101782.53;6211322;28;20065;-72
2023/09/27 09:56:22;;;;;;;3.17;1.80;;;;;;;18.64;100.00;101779.75;6202302;28;20104;-72
2023/09/27 09:59:33;;;;;;;4.00;2.15;;;;;;;18.72;100.00;101780.09;6208601;28;20038;-73
2023/09/27 10:02:41;;;;;;;6.05;1.90;;;;;;;18.72;100.00;101771.25;6224660;28;20069;-72
2023/09/27 10:05:44;;;;;;;2.55;1.90;;;;;;;18.78;100.00;101768.13;6215841;28;20457;-72
2023/09/27 10:08:47;;;;;;;3.63;2.35;;;;;;;18.91;100.00;101760.97;6213412;28;20123;-72
2023/09/27 10:11:50;;;;;;;3.70;2.63;;;;;;;19.12;100.00;101752.38;6204007;28;20382;-73
2023/09/27 10:14:53;;;;;;;3.13;1.80;;;;;;;19.28;100.00;101760.94;6214115;28;20057;-72
2023/09/27 10:18:36;;;;;;;5.75;2.20;;;;;;;19.43;100.00;101766.94;6211393;28;20061;-72
2023/09/27 10:22:00;;;;;;;1.58;1.45;;;;;;;19.51;100.00;101756.56;6211236;28;20046;-73
2023/09/27 10:25:03;;;;;;;1.80;1.50;;;;;;;19.50;100.00;101758.38;6201974;28;20043;-73
2023/09/27 10:28:05;;;;;;;3.13;1.75;;;;;;;19.51;100.00;101760.06;6200755;28;20052;-72
2023/09/27 10:31:07;;;;;;;2.45;2.03;;;;;;;19.57;100.00;101765.91;6212228;28;20057;-73
2023/09/27 10:34:41;;;;;;;3.05;1.67;;;;;;;19.58;100.00;101779.16;6216070;28;20058;-71
2023/09/27 10:37:58;;;;;;;2.72;1.60;;;;;;;19.59;100.00;101772.00;6216554;28;20058;-76
2023/09/27 10:40:59;;;;;;;1.77;1.38;;;;;;;19.60;100.00;101763.91;6225906;28;20053;-76
2023/09/27 10:44:01;;;;;;;2.47;1.70;;;;;;;19.57;100.00;101763.25;6225859;28;20053;-76
2023/09/27 10:47:04;;;;;;;1.63;1.30;;;;;;;19.50;100.00;101757.53;6211529;28;20073;-77
2023/09/27 10:50:08;;;;;;;2.58;1.52;;;;;;;19.35;100.00;101754.22;6215228;28;20132;-76
2023/09/27 10:53:10;;;;;;;2.38;1.65;;;;;;;19.28;100.00;101742.28;6215047;28;20056;-76
2023/09/27 10:56:11;;;;;;;1.20;1.10;;;;;;;19.28;100.00;101726.28;6210362;28;20046;-77
2023/09/27 10:59:14;;;;;;;1.45;1.30;;;;;;;19.38;100.00;101726.47;6200684;28;20047;-76
2023/09/27 11:02:27;;;;;;;2.17;1.42;;;;;;;19.47;100.00;101729.28;6209252;28;20047;-76
2023/09/27 11:05:30;;;;;;;2.97;1.60;;;;;;;19.65;100.00;101723.56;6188870;28;20061;-77
2023/09/27 11:08:31;;;;;;;2.13;1.65;;;;;;;19.79;100.00;101722.50;6190359;28;20039;-77
2023/09/27 11:11:33;;;;;;;2.03;1.75;;;;;;;19.93;100.00;101725.81;6213742;28;20346;-76
2023/09/27 11:14:35;;;;;;;3.42;2.20;;;;;;;20.10;100.00;101720.97;6228508;28;20049;-77
2023/09/27 11:17:36;;;;;;;3.10;1.83;;;;;;;20.27;100.00;101732.03;6230018;28;20038;-77
2023/09/27 11:20:40;;;;;;;7.05;2.08;;;;;;;20.54;100.00;101722.84;6230349;28;20049;-78
2023/09/27 11:23:55;;;;;;;2.25;1.67;;;;;;;20.81;100.00;101726.97;6230454;28;20074;-77
2023/09/27 11:26:57;;;;;;;3.47;1.80;;;;;;;21.06;100.00;101726.63;6230205;28;20057;-76
2023/09/27 11:29:58;;;;;;;3.20;1.83;;;;;;;21.25;100.00;101726.81;6229703;28;20149;-77
2023/09/27 11:33:01;;;;;;;4.88;2.00;;;;;;;21.42;100.00;101725.44;6219899;28;20060;-77
2023/09/27 11:36:07;;;;;;;1.80;1.50;;;;;;;21.58;100.00;101726.84;6229985;28;20181;-77
2023/09/27 11:39:10;;;;;;;1.73;1.33;;;;;;;21.67;100.00;101723.41;6229585;28;20041;-77
2023/09/27 11:42:11;;;;;;;3.22;1.38;;;;;;;21.65;100.00;101723.50;6230017;28;20080;-77
2023/09/27 11:45:13;;;;;;;1.65;1.35;;;;;;;21.48;100.00;101726.75;6208189;28;20050;-77
2023/09/27 11:48:15;;;;;;;2.20;1.30;;;;;;;21.38;100.00;101725.81;6205305;28;20050;-77
2023/09/27 11:51:18;;;;;;;2.55;1.65;;;;;;;21.49;100.00;101712.41;6204974;28;20352;-76
2023/09/27 11:54:19;;;;;;;3.28;1.92;;;;;;;21.67;100.00;101705.50;6205101;28;20050;-77
2023/09/27 11:57:20;;;;;;;2.13;1.30;;;;;;;21.84;100.00;101708.56;6199540;28;20346;-76
2023/09/27 12:00:22;;;;;;;1.40;1.30;;;;;;;21.89;100.00;101700.97;6204917;28;20058;-77
2023/09/27 12:03:25;;;;;;;2.00;1.30;;;;;;;22.16;100.00;101698.63;6217503;28;20057;-77
2023/09/27 12:06:29;;;;;;;2.65;1.40;;;;;;;22.63;100.00;101690.91;6229294;28;20050;-76
2023/09/27 12:09:31;;;;;;;3.40;1.70;;;;;;;22.94;100.00;101680.16;6228585;28;20079;-76
2023/09/27 12:12:33;;;;;;;3.25;1.50;;;;;;;23.19;100.00;101671.53;6229386;28;20140;-76
2023/09/27 12:15:35;;;;;;;2.60;1.33;;;;;;;23.34;100.00;101674.63;6228982;28;20129;-72
2023/09/27 12:18:36;;;;;;;2.55;1.30;;;;;;;23.65;100.00;101664.59;6214815;28;20336;-74
2023/09/27 12:21:39;;;;;;;2.65;1.33;;;;;;;23.62;100.00;101661.31;6204374;28;20054;-76
2023/09/27 12:24:42;;;;;;;2.17;1.45;;;;;;;23.23;100.00;101658.69;6204036;28;20061;-76
2023/09/27 12:27:43;;;;;;;2.35;1.20;;;;;;;23.02;100.00;101661.50;6204466;28;20054;-78
2023/09/27 12:30:44;;;;;;;1.55;1.10;;;;;;;22.93;100.00;101668.56;6204284;28;20061;-77
2023/09/27 12:33:46;;;;;;;1.60;1.40;;;;;;;23.02;100.00;101664.19;6204516;28;20054;-76
2023/09/27 12:36:49;;;;;;;3.30;1.35;;;;;;;23.11;100.00;101651.78;6204068;28;20054;-77
2023/09/27 12:39:50;;;;;;;1.73;1.30;;;;;;;23.22;100.00;101651.66;6204027;28;20190;-76
2023/09/27 12:42:52;;;;;;;1.75;1.42;;;;;;;23.65;100.00;101658.38;6204225;28;20077;-76
2023/09/27 12:45:53;;;;;;;2.22;1.38;;;;;;;23.88;100.00;101656.19;6204050;28;20050;-77
2023/09/27 12:48:54;;;;;;;1.45;1.17;;;;;;;24.13;100.00;101650.19;6203628;28;20050;-78
2023/09/27 12:51:57;;;;;;;2.08;1.13;;;;;;;24.41;100.00;101648.38;6203854;28;20054;-77
2023/09/27 12:54:59;;;;;;;1.35;1.10;;;;;;;24.70;100.00;101645.47;6203150;28;20057;-78
2023/09/27 12:58:00;;;;;;;1.83;0.90;;;;;;;24.66;100.00;101635.19;6178662;28;20050;-75
2023/09/27 13:01:02;;;;;;;4.93;1.40;;;;;;;24.57;100.00;101630.72;6200998;28;20050;-76
2023/09/27 13:04:03;;;;;;;2.42;1.42;;;;;;;24.49;100.00;101632.34;6219877;28;20061;-76
2023/09/27 13:07:06;;;;;;;2.22;1.33;;;;;;;23.97;100.00;101625.78;6215972;28;20053;-76
2023/09/27 13:10:08;;;;;;;1.73;1.10;;;;;;;23.94;100.00;101632.31;6209564;28;20451;-77
2023/09/27 13:13:10;;;;;;;2.15;1.67;;;;;;;24.04;100.00;101627.75;6219766;28;20057;-77
2023/09/27 13:16:11;;;;;;;3.17;1.48;;;;;;;23.95;100.00;101617.88;6215960;28;20061;-75
2023/09/27 13:19:13;;;;;;;3.55;1.02;;;;;;;23.59;100.00;101621.38;6209772;28;20100;-76
2023/09/27 13:22:16;;;;;;;1.67;1.15;;;;;;;23.25;100.00;101616.47;6203242;28;20104;-76
2023/09/27 13:25:17;;;;;;;2.72;1.42;;;;;;;23.03;100.00;101617.63;6206859;28;20061;-76
2023/09/27 13:28:19;;;;;;;1.90;1.30;;;;;;;23.01;100.00;101617.75;6219003;28;20057;-75
2023/09/27 13:31:20;;;;;;;4.50;1.65;;;;;;;23.15;100.00;101607.59;6227333;28;20370;-76
2023/09/27 13:34:22;;;;;;;1.83;1.25;;;;;;;23.37;100.00;101599.25;6227822;28;20057;-76
2023/09/27 13:37:24;;;;;;;3.55;1.27;;;;;;;23.48;100.00;101607.13;6226940;28;20131;-77
2023/09/27 13:40:26;;;;;;;1.80;1.40;;;;;;;23.54;100.00;101608.38;6226903;28;20045;-77
2023/09/27 13:43:28;;;;;;;2.40;1.52;;;;;;;23.80;100.00;101605.94;6227282;28;20050;-74
2023/09/27 13:46:29;;;;;;;2.38;1.40;;;;;;;24.25;100.00;101599.78;6218205;28;20192;-74
2023/09/27 13:49:31;;;;;;;1.70;1.33;;;;;;;24.50;100.00;101592.88;6210471;28;20058;-74
2023/09/27 13:52:34;;;;;;;4.70;1.50;;;;;;;24.23;100.00;101581.13;6202494;28;20355;-73
2023/09/27 13:55:36;;;;;;;6.90;1.50;;;;;;;24.09;100.00;101576.25;6202511;28;20050;-73
2023/09/27 13:58:39;;;;;;;3.95;1.50;;;;;;;24.16;100.00;101566.59;6202264;28;20047;-73